メインページ
METAR-TAF:

METAR-TAF

空港 :

コルドバ, アルゼンチン

緯度: 31-19S, 経度: 064-13W, 海抜: 484m

現時点の気象観測

当レポートは26分前の06:00(UTC)に作成
北西の風 5kt
気温 16°C
湿度 88%
気圧 1016 hPa
視程10km以上
高度3000ftの雲はほとんどない
高度10000ftの雲は散在している

METAR: SACO 140600Z 31005KT 9999 FEW030 SCT100 16/14 Q1016

時間: 03:26 (06:26 UTC)

予報

当レポートは1時間26分前の05:00(UTC)に作成
予報は14日の 06時(UTC)から 15日の 06時(UTC)まで有効
の風 10kt
視程10km以上
高度4000ftの雲はほとんどない, 積乱雲.
近辺で激しい雷雨
14日の 08時(UTC)から 14日の 10時(UTC)まで徐々に
の風 10kt
視程10km以上
1,500メートル以下は雲なし、積乱雲なし

TAF: SACO 140500Z 1406/1506 18010KT 9999 VCTS FEW040CB TX35/1418Z TN18/1410Z BECMG 1408/1410 09010KT CAVOK

4,000以上の空港の気象観測と天気予報(METAR報とTAF報)

利用可能な観測所は地図上に黄色い丸と赤い丸で示す。

丸の上にカーソルを重ねると観測所名を参照できる。

次にクリックすると気象観測と天気予報を参照できる。

マップの切り替え:黒色「×」印の緑ボタンをクリックして拡大、「-」印の緑ボタンをクリックして縮小、緑色の三角印をクリックして隣りの地図に切り替え


METAR-TAF: